createdAt,value
2019-04-05T00:01:05.189Z,35.53
2019-04-05T00:03:33.439Z,33.93
2019-04-05T00:06:01.741Z,35.23
2019-04-05T00:08:30.001Z,34.70
2019-04-05T00:10:58.306Z,34.80
2019-04-05T00:13:26.605Z,35.23
2019-04-05T00:15:54.873Z,34.47
2019-04-05T00:18:23.097Z,39.03
2019-04-05T00:20:51.422Z,32.60
2019-04-05T00:23:19.652Z,37.93
2019-04-05T00:25:47.977Z,34.73
2019-04-05T00:28:16.283Z,32.83
2019-04-05T00:30:44.608Z,35.47
2019-04-05T00:33:12.870Z,36.20
2019-04-05T00:35:41.177Z,34.87
2019-04-05T00:38:09.429Z,35.97
2019-04-05T00:40:37.727Z,37.37
2019-04-05T00:43:06.072Z,38.03
2019-04-05T00:45:34.359Z,37.77
2019-04-05T00:48:02.594Z,36.40
2019-04-05T00:50:30.937Z,37.50
2019-04-05T00:52:59.229Z,40.30
2019-04-05T00:55:28.141Z,40.23
2019-04-05T00:57:56.455Z,39.07
2019-04-05T01:00:25.430Z,36.93
2019-04-05T01:02:53.793Z,38.17
2019-04-05T01:05:22.185Z,38.60
2019-04-05T01:07:50.486Z,37.57
2019-04-05T01:10:19.125Z,37.97
2019-04-05T01:12:47.427Z,37.63
2019-04-05T01:15:17.165Z,37.13
2019-04-05T01:17:45.500Z,37.43
2019-04-05T01:20:14.110Z,37.63
2019-04-05T01:22:43.918Z,37.17
2019-04-05T01:25:12.208Z,38.17
2019-04-05T01:27:40.853Z,40.67
2019-04-05T01:30:10.620Z,41.67
2019-04-05T01:32:38.944Z,39.50
2019-04-05T01:35:07.504Z,40.70
2019-04-05T01:37:36.833Z,39.93
2019-04-05T01:40:06.645Z,45.00
2019-04-05T01:42:35.977Z,43.53
2019-04-05T01:45:05.889Z,41.73
2019-04-05T01:47:34.299Z,43.93
2019-04-05T01:50:02.591Z,47.43
2019-04-05T01:52:30.924Z,43.70
2019-04-05T01:54:59.154Z,43.77
2019-04-05T01:57:27.481Z,42.47
2019-04-05T01:59:55.781Z,45.07
2019-04-05T02:02:24.113Z,46.77
2019-04-05T02:04:52.894Z,50.70
2019-04-05T02:07:21.533Z,44.37
2019-04-05T02:09:49.841Z,43.87
2019-04-05T02:12:18.138Z,47.70
2019-04-05T02:14:56.610Z,44.37
2019-04-05T02:17:23.243Z,45.20
2019-04-05T02:19:51.573Z,41.77
2019-04-05T02:22:19.952Z,43.87
2019-04-05T02:24:48.363Z,46.00
2019-04-05T02:27:16.660Z,47.97
2019-04-05T02:29:44.984Z,44.83
2019-04-05T02:32:13.221Z,45.80
2019-04-05T02:34:41.561Z,45.87
2019-04-05T02:37:09.853Z,46.40
2019-04-05T02:39:38.143Z,41.47
2019-04-05T02:42:06.483Z,41.67
2019-04-05T02:44:34.765Z,45.73
2019-04-05T02:47:03.992Z,46.63
2019-04-05T02:49:33.593Z,47.70
2019-04-05T02:52:02.621Z,51.37
2019-04-05T02:54:30.922Z,48.53
2019-04-05T02:56:59.339Z,51.57
2019-04-05T02:59:28.055Z,47.80
2019-04-05T03:01:56.385Z,50.00
2019-04-05T03:04:24.680Z,51.00
2019-04-05T03:06:53.012Z,49.93
2019-04-05T03:09:21.810Z,42.33
2019-04-05T03:11:50.842Z,45.10
2019-04-05T03:14:20.136Z,46.30
2019-04-05T03:16:53.613Z,44.73
2019-04-05T03:19:26.903Z,45.53
2019-04-05T03:21:59.144Z,44.37
2019-04-05T03:24:28.929Z,49.17
2019-04-05T03:26:59.672Z,49.07
2019-04-05T03:29:27.988Z,47.23
2019-04-05T03:31:56.593Z,49.50
2019-04-05T03:34:24.915Z,49.17
2019-04-05T03:36:53.639Z,48.50
2019-04-05T03:39:22.965Z,49.77
2019-04-05T03:41:52.564Z,46.80
2019-04-05T03:44:22.994Z,49.60
2019-04-05T03:46:56.925Z,45.80
2019-04-05T03:49:21.414Z,44.30
2019-04-05T03:51:52.334Z,48.17
2019-04-05T03:54:20.661Z,41.93
2019-04-05T03:56:48.953Z,42.47
2019-04-05T03:59:17.364Z,44.67
2019-04-05T04:01:46.080Z,37.97
2019-04-05T04:04:14.304Z,39.20
2019-04-05T04:06:42.647Z,39.90
2019-04-05T04:09:10.903Z,41.30
2019-04-05T04:11:39.202Z,36.80
2019-04-05T04:14:07.926Z,40.20
2019-04-05T04:16:36.224Z,41.90
2019-04-05T04:19:04.522Z,40.43
2019-04-05T04:21:34.320Z,41.70
2019-04-05T04:24:03.037Z,40.83
2019-04-05T04:26:31.972Z,39.93
2019-04-05T04:29:00.260Z,44.30
2019-04-05T04:31:28.595Z,38.97
2019-04-05T04:33:56.987Z,36.93
2019-04-05T04:36:25.524Z,42.50
2019-04-05T04:38:54.512Z,39.23
2019-04-05T04:41:22.911Z,38.23
2019-04-05T04:43:51.540Z,40.20
2019-04-05T04:46:20.569Z,39.87
2019-04-05T04:48:48.965Z,42.53
2019-04-05T04:51:17.897Z,43.97
2019-04-05T04:53:46.387Z,44.10
2019-04-05T04:56:14.716Z,43.67
2019-04-05T04:58:42.940Z,46.17
2019-04-05T05:01:11.281Z,45.20
2019-04-05T05:03:39.600Z,47.77
2019-04-05T05:06:07.984Z,44.40
2019-04-05T05:08:36.324Z,44.90
2019-04-05T05:11:14.007Z,47.80
2019-04-05T05:13:34.645Z,48.60
2019-04-05T05:16:03.061Z,51.83
2019-04-05T05:18:31.391Z,46.93
2019-04-05T05:20:59.677Z,45.00
2019-04-05T05:23:28.008Z,42.70
2019-04-05T05:25:56.300Z,38.83
2019-04-05T05:28:24.604Z,40.70
2019-04-05T05:30:52.950Z,41.70
2019-04-05T05:33:21.174Z,45.57
2019-04-05T05:35:49.607Z,39.50
2019-04-05T05:38:17.909Z,46.33
2019-04-05T05:40:46.256Z,41.97
2019-04-05T05:43:14.555Z,38.27
2019-04-05T05:45:42.807Z,44.43
2019-04-05T05:48:11.113Z,40.63
2019-04-05T05:50:39.372Z,44.60
2019-04-05T05:53:07.606Z,44.60
2019-04-05T05:55:36.137Z,44.97
2019-04-05T05:58:04.437Z,40.93
2019-04-05T06:00:32.696Z,43.87
2019-04-05T06:03:00.927Z,39.93
2019-04-05T06:05:29.160Z,43.80
2019-04-05T06:07:58.723Z,41.83
2019-04-05T06:10:27.305Z,42.33
2019-04-05T06:12:58.549Z,42.87
2019-04-05T06:15:25.435Z,43.93
2019-04-05T06:18:04.141Z,43.60
2019-04-05T06:20:23.713Z,41.37
2019-04-05T06:22:51.973Z,40.90
2019-04-05T06:25:20.364Z,36.57
2019-04-05T06:27:48.662Z,39.43
2019-04-05T06:30:16.948Z,38.57
2019-04-05T06:32:45.225Z,38.57
2019-04-05T06:35:13.525Z,35.37
2019-04-05T06:37:41.754Z,37.43
2019-04-05T06:40:10.076Z,36.33
2019-04-05T06:42:38.383Z,39.67
2019-04-05T06:45:06.761Z,34.03
2019-04-05T06:47:35.008Z,36.60
2019-04-05T06:50:04.742Z,38.00
2019-04-05T06:52:32.974Z,37.73
2019-04-05T06:55:01.279Z,38.57
2019-04-05T06:57:29.480Z,39.67
2019-04-05T06:59:57.741Z,42.07
2019-04-05T07:02:26.043Z,39.07
2019-04-05T07:04:54.299Z,40.53
2019-04-05T07:07:22.524Z,42.80
2019-04-05T07:09:50.761Z,39.73
2019-04-05T07:12:20.572Z,41.53
2019-04-05T07:14:49.041Z,39.63
2019-04-05T07:17:17.301Z,39.03
2019-04-05T07:19:45.596Z,39.07
2019-04-05T07:22:13.857Z,39.63
2019-04-05T07:24:42.147Z,38.07
2019-04-05T07:27:10.393Z,41.07
2019-04-05T07:29:38.625Z,40.80
2019-04-05T07:32:06.888Z,39.47
2019-04-05T07:34:35.117Z,35.50
2019-04-05T07:37:03.452Z,35.83
2019-04-05T07:39:31.682Z,38.93
2019-04-05T07:42:00.048Z,40.63
2019-04-05T07:44:28.314Z,35.97
2019-04-05T07:46:56.689Z,35.30
2019-04-05T07:49:25.067Z,36.93
2019-04-05T07:51:53.284Z,36.37
2019-04-05T07:54:21.620Z,33.13
2019-04-05T07:56:49.952Z,33.07
2019-04-05T07:59:20.770Z,34.90
2019-04-05T08:01:48.137Z,36.20
2019-04-05T08:04:16.464Z,39.00
2019-04-05T08:06:46.294Z,33.23
2019-04-05T08:09:15.596Z,38.40
2019-04-05T08:11:44.335Z,33.83
2019-04-05T08:14:13.532Z,36.97
2019-04-05T08:16:41.791Z,34.60
2019-04-05T08:19:10.093Z,36.33
2019-04-05T08:21:38.415Z,36.67
2019-04-05T08:24:06.790Z,39.93
2019-04-05T08:26:35.053Z,35.87
2019-04-05T08:29:03.860Z,36.53
2019-04-05T08:31:32.129Z,41.13
2019-04-05T08:34:00.431Z,39.53
2019-04-05T08:36:28.692Z,38.70
2019-04-05T08:38:56.992Z,35.20
2019-04-05T08:41:25.320Z,37.47
2019-04-05T08:43:53.551Z,39.10
2019-04-05T08:46:21.879Z,38.40
2019-04-05T08:48:52.337Z,36.20
2019-04-05T08:51:20.087Z,36.97
2019-04-05T08:53:48.316Z,41.13
2019-04-05T08:56:16.570Z,35.63
2019-04-05T08:58:44.798Z,35.00
2019-04-05T09:01:13.057Z,35.57
2019-04-05T09:03:41.285Z,40.97
2019-04-05T09:06:09.611Z,36.00
2019-04-05T09:08:38.123Z,34.23
2019-04-05T09:11:06.379Z,32.40
2019-04-05T09:13:34.604Z,33.90
2019-04-05T09:16:02.857Z,33.30
2019-04-05T09:18:31.107Z,33.67
2019-04-05T09:20:59.368Z,35.77
2019-04-05T09:23:27.709Z,36.33
2019-04-05T09:25:58.475Z,36.77
2019-04-05T09:28:26.705Z,35.10
2019-04-05T09:30:55.033Z,35.20
2019-04-05T09:33:23.269Z,38.33
2019-04-05T09:35:51.996Z,32.90
2019-04-05T09:38:20.294Z,35.17
2019-04-05T09:40:48.608Z,34.03
2019-04-05T09:43:16.840Z,35.43
2019-04-05T09:45:45.098Z,33.80
2019-04-05T09:48:13.431Z,34.47
2019-04-05T09:50:41.649Z,40.53
2019-04-05T09:53:09.926Z,34.03
2019-04-05T09:55:38.157Z,41.30
2019-04-05T09:58:09.707Z,33.57
2019-04-05T10:00:36.601Z,35.87
2019-04-05T10:03:04.944Z,36.57
2019-04-05T10:05:33.296Z,32.63
2019-04-05T10:08:01.619Z,34.67
2019-04-05T10:10:29.919Z,33.60
2019-04-05T10:12:58.187Z,31.27
2019-04-05T10:15:27.321Z,32.60
2019-04-05T10:17:55.804Z,35.27
2019-04-05T10:20:24.068Z,35.43
2019-04-05T10:22:52.388Z,33.73
2019-04-05T10:25:20.637Z,34.13
2019-04-05T10:27:49.013Z,39.30
2019-04-05T10:30:17.345Z,36.70
2019-04-05T10:32:46.296Z,33.60
2019-04-05T10:35:15.070Z,34.50
2019-04-05T10:37:43.302Z,33.80
2019-04-05T10:40:11.832Z,35.80
2019-04-05T10:42:40.073Z,35.80
2019-04-05T10:45:08.991Z,36.27
2019-04-05T10:47:37.444Z,36.40
2019-04-05T10:50:07.241Z,33.13
2019-04-05T10:52:35.550Z,34.23
2019-04-05T10:55:04.395Z,34.87
2019-04-05T10:57:32.766Z,36.33
2019-04-05T11:00:01.100Z,36.57
2019-04-05T11:02:29.413Z,36.83
2019-04-05T11:04:57.735Z,39.10
2019-04-05T11:07:26.044Z,32.90
2019-04-05T11:09:54.321Z,37.97
2019-04-05T11:12:22.663Z,37.97
2019-04-05T11:14:50.902Z,34.53
2019-04-05T11:17:19.168Z,35.73
2019-04-05T11:19:47.397Z,37.23
2019-04-05T11:22:15.660Z,37.67
2019-04-05T11:24:43.928Z,36.60
2019-04-05T11:27:12.258Z,33.67
2019-04-05T11:29:41.785Z,35.53
2019-04-05T11:32:10.270Z,30.60
2019-04-05T11:34:38.663Z,41.80
2019-04-05T11:37:07.097Z,46.60
2019-04-05T11:39:35.397Z,45.13
2019-04-05T11:42:03.737Z,28.63
2019-04-05T11:44:32.842Z,27.23
2019-04-05T11:47:01.357Z,28.40
2019-04-05T11:49:30.044Z,37.53
2019-04-05T11:51:58.485Z,32.87
2019-04-05T11:54:26.788Z,30.63
2019-04-05T11:56:55.134Z,32.17
2019-04-05T11:59:23.518Z,30.93
2019-04-05T12:01:55.937Z,31.37
2019-04-05T12:04:24.174Z,27.60
2019-04-05T12:06:52.629Z,24.73
2019-04-05T12:09:20.980Z,27.80
2019-04-05T12:11:49.650Z,26.47
2019-04-05T12:14:29.597Z,25.87
2019-04-05T12:16:48.265Z,28.80
2019-04-05T12:19:16.495Z,25.00
2019-04-05T12:21:44.825Z,25.60
2019-04-05T12:24:13.134Z,23.10
2019-04-05T12:26:42.791Z,24.43
2019-04-05T12:29:11.341Z,23.83
2019-04-05T12:31:39.820Z,22.50
2019-04-05T12:34:08.019Z,24.50
2019-04-05T12:36:36.315Z,26.63
2019-04-05T12:39:08.253Z,24.57
2019-04-05T12:41:38.424Z,25.27
2019-04-05T12:44:07.398Z,24.33
2019-04-05T12:46:35.600Z,30.70
2019-04-05T12:49:04.754Z,26.27
2019-04-05T12:51:33.146Z,25.77
2019-04-05T12:54:01.456Z,26.53
2019-04-05T12:56:29.719Z,29.90
2019-04-05T12:58:58.320Z,29.87
2019-04-05T13:01:26.555Z,28.97
2019-04-05T13:03:55.236Z,28.93
2019-04-05T13:06:23.896Z,27.30
2019-04-05T13:08:53.720Z,32.07
2019-04-05T13:11:25.901Z,30.07
2019-04-05T13:13:54.277Z,30.83
2019-04-05T13:16:22.360Z,33.83
2019-04-05T13:18:50.587Z,26.90
2019-04-05T13:21:18.817Z,26.80
2019-04-05T13:23:47.077Z,28.47
2019-04-05T13:26:15.307Z,27.57
2019-04-05T13:28:43.681Z,27.40
2019-04-05T13:31:11.908Z,33.40
2019-04-05T13:33:40.163Z,33.30
2019-04-05T13:36:08.639Z,29.40
2019-04-05T13:38:36.938Z,31.97
2019-04-05T13:41:05.164Z,30.23
2019-04-05T13:43:33.433Z,32.57
2019-04-05T13:46:01.719Z,31.27
2019-04-05T13:48:30.045Z,30.53
2019-04-05T13:50:58.281Z,36.07
2019-04-05T13:53:26.539Z,27.13
2019-04-05T13:55:54.764Z,28.80
2019-04-05T13:58:23.025Z,30.20
2019-04-05T14:00:51.256Z,31.33
2019-04-05T14:03:20.886Z,36.50
2019-04-05T14:05:50.104Z,30.63
2019-04-05T14:08:19.329Z,33.87
2019-04-05T14:10:47.560Z,35.30
2019-04-05T14:13:15.884Z,33.83
2019-04-05T14:15:44.147Z,34.87
2019-04-05T14:18:14.478Z,33.57
2019-04-05T14:20:42.346Z,33.47
2019-04-05T14:23:10.718Z,32.57
2019-04-05T14:25:39.944Z,37.10
2019-04-05T14:28:08.214Z,35.63
2019-04-05T14:30:36.554Z,36.77
2019-04-05T14:33:04.941Z,36.27
2019-04-05T14:35:33.226Z,33.83
2019-04-05T14:38:01.590Z,34.17
2019-04-05T14:40:32.922Z,36.07
2019-04-05T14:42:59.859Z,35.53
2019-04-05T14:45:28.141Z,36.37
2019-04-05T14:47:58.459Z,33.73
2019-04-05T14:50:28.332Z,35.77
2019-04-05T14:53:00.935Z,33.40
2019-04-05T14:55:29.743Z,36.77
2019-04-05T14:57:58.735Z,35.97
2019-04-05T15:00:27.165Z,35.70
2019-04-05T15:02:55.395Z,35.63
2019-04-05T15:05:23.661Z,35.57
2019-04-05T15:07:54.806Z,38.73
2019-04-05T15:10:25.011Z,36.87
2019-04-05T15:12:51.917Z,35.97
2019-04-05T15:15:20.144Z,39.00
2019-04-05T15:17:48.958Z,41.00
2019-04-05T15:20:19.850Z,36.77
2019-04-05T15:22:48.299Z,39.77
2019-04-05T15:25:21.840Z,36.87
2019-04-05T15:27:55.162Z,40.30
2019-04-05T15:30:21.141Z,40.97
2019-04-05T15:32:51.403Z,40.77
2019-04-05T15:35:19.557Z,40.10
2019-04-05T15:37:47.982Z,42.67
2019-04-05T15:40:16.777Z,37.57
2019-04-05T15:42:45.436Z,39.43
2019-04-05T15:45:16.222Z,39.07
2019-04-05T15:47:43.740Z,46.33
2019-04-05T15:50:12.156Z,44.00
2019-04-05T15:52:40.397Z,41.47
2019-04-05T15:55:08.819Z,39.47
2019-04-05T15:57:39.475Z,44.60
2019-04-05T16:00:09.237Z,42.97
2019-04-05T16:02:37.692Z,44.80
2019-04-05T16:05:06.732Z,46.20
2019-04-05T16:07:35.525Z,43.13
2019-04-05T16:10:05.930Z,41.20
2019-04-05T16:12:36.376Z,42.27
2019-04-05T16:15:05.949Z,47.47
2019-04-05T16:17:36.134Z,39.73
2019-04-05T16:20:08.823Z,42.83
2019-04-05T16:22:40.128Z,40.53
2019-04-05T16:25:11.352Z,40.43
2019-04-05T16:27:39.580Z,39.80
2019-04-05T16:30:08.408Z,44.80
2019-04-05T16:32:36.696Z,41.87
2019-04-05T16:35:08.491Z,42.53
2019-04-05T16:37:37.053Z,43.30
2019-04-05T16:40:08.735Z,48.20
2019-04-05T16:42:37.042Z,40.10
2019-04-05T16:45:11.682Z,38.03
2019-04-05T16:47:40.054Z,43.60
2019-04-05T16:50:08.990Z,42.77
2019-04-05T16:52:44.703Z,39.47
2019-04-05T16:55:07.567Z,41.67
2019-04-05T16:57:35.801Z,40.77
2019-04-05T17:00:05.572Z,45.80
2019-04-05T17:02:33.832Z,39.80
2019-04-05T17:05:02.442Z,40.43
2019-04-05T17:07:31.599Z,46.60
2019-04-05T17:10:00.076Z,52.33
2019-04-05T17:12:28.407Z,54.60
2019-04-05T17:14:56.641Z,46.37
2019-04-05T17:17:24.974Z,42.53
2019-04-05T17:19:53.224Z,40.97
2019-04-05T17:22:21.488Z,41.47
2019-04-05T17:24:49.712Z,56.47
2019-04-05T17:27:18.058Z,45.93
2019-04-05T17:29:46.362Z,42.67
2019-04-05T17:32:14.765Z,44.13
2019-04-05T17:34:43.695Z,40.83
2019-04-05T17:37:12.217Z,39.03
2019-04-05T17:39:40.990Z,39.40
2019-04-05T17:42:09.463Z,38.53
2019-04-05T17:44:37.845Z,45.33
2019-04-05T17:47:07.647Z,41.70
2019-04-05T17:49:35.884Z,40.87
2019-04-05T17:52:04.372Z,43.40
2019-04-05T17:54:32.616Z,43.80
2019-04-05T17:57:00.880Z,40.77
2019-04-05T17:59:29.113Z,42.30
2019-04-05T18:01:57.445Z,38.63
2019-04-05T18:04:25.771Z,43.83
2019-04-05T18:06:53.996Z,42.97
2019-04-05T18:09:22.336Z,44.10
2019-04-05T18:11:50.573Z,41.17
2019-04-05T18:14:18.902Z,42.90
2019-04-05T18:16:47.238Z,41.23
2019-04-05T18:19:15.539Z,51.30
2019-04-05T18:21:43.868Z,43.73
2019-04-05T18:24:12.136Z,44.43
2019-04-05T18:26:40.700Z,44.50
2019-04-05T18:29:09.205Z,44.93
2019-04-05T18:31:37.605Z,46.00
2019-04-05T18:34:05.951Z,43.37
2019-04-05T18:36:35.583Z,50.63
2019-04-05T18:39:05.676Z,41.00
2019-04-05T18:41:34.056Z,46.17
2019-04-05T18:44:02.402Z,46.80
2019-04-05T18:46:30.811Z,41.27
2019-04-05T18:48:59.068Z,44.37
2019-04-05T18:51:30.667Z,37.90
2019-04-05T18:53:58.967Z,45.03
2019-04-05T18:56:27.312Z,57.47
2019-04-05T18:58:57.040Z,53.67
2019-04-05T19:01:25.718Z,57.70
2019-04-05T19:03:55.567Z,53.47
2019-04-05T19:06:26.070Z,55.80
2019-04-05T19:08:59.081Z,45.67
2019-04-05T19:11:27.526Z,48.63
2019-04-05T19:14:01.217Z,45.27
2019-04-05T19:16:26.105Z,52.40
2019-04-05T19:18:54.459Z,48.67
2019-04-05T19:21:22.729Z,50.17
2019-04-05T19:23:51.381Z,53.07
2019-04-05T19:26:19.621Z,55.13
2019-04-05T19:28:48.546Z,59.43
2019-04-05T19:48:46.382Z,44.77
2019-04-05T19:51:14.639Z,36.73
2019-04-05T19:53:42.876Z,38.80
2019-04-05T19:56:11.397Z,46.67
2019-04-05T19:58:39.956Z,44.63
2019-04-05T20:01:08.717Z,48.57
2019-04-05T20:03:37.362Z,46.93
2019-04-05T20:06:07.890Z,40.10
2019-04-05T20:08:36.429Z,40.97
2019-04-05T20:11:05.274Z,47.93
2019-04-05T20:13:38.621Z,48.90
2019-04-05T20:16:07.020Z,50.47
2019-04-05T20:18:35.276Z,46.97
2019-04-05T20:21:03.698Z,47.23
2019-04-05T20:23:33.448Z,45.07
2019-04-05T20:26:03.248Z,44.37
2019-04-05T20:28:32.584Z,40.17
2019-04-05T20:31:02.073Z,49.60
2019-04-05T20:33:31.085Z,46.47
2019-04-05T20:35:59.456Z,45.47
2019-04-05T20:38:28.521Z,42.33
2019-04-05T20:40:57.086Z,40.60
2019-04-05T20:43:25.481Z,41.80
2019-04-05T20:45:54.008Z,51.70
2019-04-05T20:48:23.753Z,50.87
2019-04-05T20:50:52.165Z,48.33
2019-04-05T20:53:21.062Z,50.00
2019-04-05T20:55:49.712Z,48.50
2019-04-05T20:58:18.046Z,49.83
2019-04-05T21:00:46.308Z,46.37
2019-04-05T21:03:14.690Z,53.47
2019-04-05T21:05:43.004Z,49.27
2019-04-05T21:08:11.243Z,49.20
2019-04-05T21:10:40.379Z,53.80
2019-04-05T21:13:08.649Z,46.43
2019-04-05T21:15:37.285Z,52.93
2019-04-05T21:18:05.633Z,63.13
2019-04-05T21:20:33.965Z,63.90
2019-04-05T21:23:02.193Z,58.27
2019-04-05T21:25:30.571Z,59.43
2019-04-05T21:27:59.577Z,51.20
2019-04-05T21:30:29.492Z,52.10
2019-04-05T21:33:00.209Z,59.87
2019-04-05T21:35:28.456Z,54.70
2019-04-05T21:37:56.792Z,51.10
2019-04-05T21:40:25.097Z,58.70
2019-04-05T21:42:53.353Z,56.07
2019-04-05T21:45:21.769Z,52.47
2019-04-05T21:47:50.489Z,54.63
2019-04-05T21:50:18.744Z,51.87
2019-04-05T21:52:46.964Z,46.93
2019-04-05T21:55:15.224Z,51.63
2019-04-05T21:57:43.515Z,58.00
2019-04-05T22:00:16.911Z,51.00
2019-04-05T22:02:45.464Z,56.90
2019-04-05T22:05:13.779Z,63.27
2019-04-05T22:07:42.464Z,60.70
2019-04-05T22:10:10.812Z,59.33
2019-04-05T22:12:39.124Z,54.37
2019-04-05T22:15:07.637Z,53.43
2019-04-05T22:17:35.864Z,51.73
2019-04-05T22:20:05.615Z,53.53
2019-04-05T22:22:33.915Z,56.00
2019-04-05T22:25:02.253Z,54.20
2019-04-05T22:27:30.559Z,48.73
2019-04-05T22:29:58.829Z,55.63
2019-04-05T22:32:27.841Z,50.53
2019-04-05T22:34:56.874Z,46.93
2019-04-05T22:37:25.097Z,50.60
2019-04-05T22:39:53.355Z,54.13
2019-04-05T22:42:21.571Z,58.40
2019-04-05T22:44:49.904Z,58.67
2019-04-05T22:47:18.491Z,56.73
2019-04-05T22:49:46.783Z,57.30
2019-04-05T22:52:15.177Z,51.57
2019-04-05T22:54:43.401Z,50.30
2019-04-05T22:57:11.665Z,58.73
2019-04-05T22:59:39.888Z,60.77
2019-04-05T23:02:08.153Z,59.30
2019-04-05T23:04:36.392Z,56.00
2019-04-05T23:07:04.716Z,57.80
2019-04-05T23:09:32.972Z,52.63
2019-04-05T23:12:01.205Z,56.40
2019-04-05T23:14:29.437Z,58.77
2019-04-05T23:16:57.688Z,58.63
2019-04-05T23:19:28.477Z,53.33
2019-04-05T23:21:56.800Z,47.47
2019-04-05T23:24:25.028Z,46.77
2019-04-05T23:26:53.293Z,53.57
2019-04-05T23:29:21.520Z,57.03
2019-04-05T23:31:49.930Z,56.53
2019-04-05T23:34:18.154Z,50.00
2019-04-05T23:36:46.416Z,48.87
2019-04-05T23:39:14.661Z,46.80
2019-04-05T23:41:42.964Z,50.90
2019-04-05T23:44:11.188Z,49.47
2019-04-05T23:46:39.452Z,60.60
2019-04-05T23:49:07.670Z,54.03
2019-04-05T23:51:36.023Z,54.93
2019-04-05T23:54:04.307Z,49.87
2019-04-05T23:56:32.566Z,61.03
2019-04-05T23:59:00.797Z,55.50
